Time;durP1;ratioP1;P1;durP2;ratioP2;P2;SDS_P1;SDS_P2;PMS_P1;PMS_P2;Temp;Humidity;BMP_temperature;BMP_pressure;BME280_temperature;BME280_humidity;BME280_pressure;Samples;Min_cycle;Max_cycle;Signal;HPM_P1;HPM_P2
2020/12/05 00:02:01;;;;;;;27.03;14.83;;;;;;;7.12;64.02;98038.94;251791;1134;114907;-65
2020/12/05 00:07:03;;;;;;;22.40;14.35;;;;;;;7.09;64.94;98041.77;251664;1135;114966;-65
2020/12/05 00:12:08;;;;;;;24.47;13.32;;;;;;;7.10;65.27;98044.34;251774;1135;116130;-65
2020/12/05 00:17:31;;;;;;;21.83;12.90;;;;;;;7.23;65.15;98048.83;251807;1135;114997;-66
2020/12/05 00:22:34;;;;;;;21.17;13.20;;;;;;;7.34;65.43;98052.49;251710;1137;115377;-66
2020/12/05 00:27:36;;;;;;;23.20;13.97;;;;;;;7.44;64.49;98038.64;251665;1135;114917;-66
2020/12/05 00:32:38;;;;;;;22.37;13.60;;;;;;;7.48;64.92;98048.11;251714;1135;115094;-66
2020/12/05 00:37:41;;;;;;;20.48;12.78;;;;;;;7.53;64.51;98048.64;251823;1135;115126;-66
2020/12/05 00:42:43;;;;;;;19.67;12.70;;;;;;;7.68;65.00;98052.94;251800;1137;205090;-66
2020/12/05 00:47:45;;;;;;;21.53;12.83;;;;;;;7.82;64.59;98057.31;251843;1135;114688;-66
2020/12/05 00:52:48;;;;;;;20.33;12.23;;;;;;;7.97;65.40;98052.78;251716;1134;114943;-66
2020/12/05 00:57:51;;;;;;;19.07;12.68;;;;;;;8.13;65.06;98063.20;251763;1135;114905;-66
2020/12/05 01:02:53;;;;;;;18.35;11.08;;;;;;;8.24;64.96;98072.11;251652;1134;114974;-66
2020/12/05 01:07:56;;;;;;;21.70;12.47;;;;;;;8.38;65.05;98068.55;251869;1134;114453;-66
2020/12/05 01:13:01;;;;;;;17.93;11.13;;;;;;;8.53;64.72;98064.85;250927;1134;117718;-64
2020/12/05 01:18:03;;;;;;;17.63;11.23;;;;;;;8.66;64.50;98061.33;251563;1135;114873;-66
2020/12/05 01:23:06;;;;;;;16.17;11.23;;;;;;;8.75;64.56;98056.23;251654;1136;115094;-66
2020/12/05 01:28:08;;;;;;;16.50;10.40;;;;;;;8.85;64.57;98047.63;251686;1134;115660;-66
2020/12/05 01:33:10;;;;;;;15.17;10.30;;;;;;;8.95;64.28;98059.28;251660;1133;114522;-65
2020/12/05 01:38:13;;;;;;;15.83;10.40;;;;;;;9.04;64.37;98060.45;251732;1135;115044;-65
2020/12/05 01:43:15;;;;;;;17.60;11.50;;;;;;;9.14;64.28;98059.67;251671;1135;115058;-65
2020/12/05 01:48:19;;;;;;;22.50;13.57;;;;;;;9.26;64.42;98052.61;251702;1134;115216;-65
2020/12/05 01:53:22;;;;;;;20.10;13.62;;;;;;;9.38;63.88;98051.73;251556;1134;115162;-65
2020/12/05 01:58:27;;;;;;;21.53;13.40;;;;;;;9.47;63.65;98050.20;251734;1135;116310;-65
2020/12/05 02:03:29;;;;;;;21.70;13.60;;;;;;;9.49;63.30;98056.25;251805;1135;114750;-65
2020/12/05 02:08:51;;;;;;;22.57;14.40;;;;;;;9.46;63.71;98040.55;251580;1134;115785;-65
2020/12/05 02:13:59;;;;;;;25.60;14.50;;;;;;;9.41;62.97;98053.33;251317;1136;115183;-65
2020/12/05 02:19:04;;;;;;;21.80;13.65;;;;;;;9.36;62.99;98053.64;251694;1134;114930;-65
2020/12/05 02:24:09;;;;;;;22.17;14.50;;;;;;;9.30;63.28;98050.58;251674;1135;115028;-65
2020/12/05 02:29:12;;;;;;;23.47;14.80;;;;;;;9.21;63.07;98052.11;251346;1136;115029;-65
2020/12/05 02:34:14;;;;;;;19.83;12.93;;;;;;;9.12;63.02;98055.42;251769;1135;115065;-65
2020/12/05 02:39:18;;;;;;;19.47;13.33;;;;;;;9.02;62.65;98047.27;251764;1140;116298;-65
2020/12/05 02:44:20;;;;;;;22.82;13.98;;;;;;;8.89;62.68;98038.48;251746;1135;115692;-65
2020/12/05 02:49:23;;;;;;;23.57;14.43;;;;;;;8.84;62.91;98041.48;251739;1134;114844;-65
2020/12/05 02:54:25;;;;;;;25.95;15.20;;;;;;;8.81;62.64;98044.34;251769;1136;114703;-66
2020/12/05 02:59:28;;;;;;;24.60;15.03;;;;;;;8.81;63.27;98047.00;251788;1134;114807;-64
2020/12/05 03:04:31;;;;;;;29.35;15.70;;;;;;;8.82;63.04;98053.98;251823;1134;115163;-65
2020/12/05 03:09:34;;;;;;;30.32;16.67;;;;;;;8.81;63.48;98048.81;251846;1134;115060;-65
2020/12/05 03:14:37;;;;;;;29.80;15.47;;;;;;;8.81;63.27;98059.42;251807;1134;116001;-66
2020/12/05 03:19:39;;;;;;;27.37;14.07;;;;;;;8.79;63.24;98054.20;251704;1135;115011;-65
2020/12/05 03:24:42;;;;;;;22.70;14.87;;;;;;;8.84;63.47;98052.09;251890;1135;115060;-65
2020/12/05 03:29:44;;;;;;;27.37;15.37;;;;;;;8.93;63.22;98047.92;251651;1134;114833;-65
2020/12/05 03:34:46;;;;;;;27.42;15.05;;;;;;;9.02;63.64;98041.97;251675;1137;115060;-65
2020/12/05 03:39:49;;;;;;;26.77;16.10;;;;;;;9.11;63.22;98045.78;251727;1134;115380;-65
2020/12/05 03:44:52;;;;;;;24.57;14.93;;;;;;;9.15;63.45;98042.78;251709;1135;115115;-62
2020/12/05 03:49:54;;;;;;;28.67;16.10;;;;;;;9.12;63.40;98045.65;251963;1137;115777;-63
2020/12/05 03:54:57;;;;;;;25.53;15.57;;;;;;;9.05;63.02;98030.29;251760;1136;115268;-63
2020/12/05 04:00:00;;;;;;;27.42;15.98;;;;;;;8.96;62.75;98029.97;251776;1134;114921;-63
2020/12/05 04:05:05;;;;;;;27.50;15.37;;;;;;;8.93;63.04;98039.95;251856;1135;216902;-63
2020/12/05 04:10:07;;;;;;;21.57;13.73;;;;;;;8.95;63.31;98038.06;251760;1134;216408;-63
2020/12/05 04:15:10;;;;;;;19.50;13.20;;;;;;;8.99;63.46;98044.83;251758;1133;115235;-64
2020/12/05 04:20:12;;;;;;;25.00;14.10;;;;;;;9.04;63.44;98037.41;251695;1134;115564;-64
2020/12/05 04:25:15;;;;;;;23.32;14.38;;;;;;;9.10;63.57;98028.98;251707;1134;115363;-64
2020/12/05 04:30:17;;;;;;;29.10;14.77;;;;;;;9.19;63.45;98030.12;251750;1134;114768;-64
2020/12/05 04:35:20;;;;;;;26.67;14.47;;;;;;;9.20;63.40;98037.13;251830;1136;115100;-64
2020/12/05 04:40:22;;;;;;;25.07;13.87;;;;;;;9.21;63.60;98055.61;251728;1135;114849;-63
2020/12/05 04:45:24;;;;;;;25.80;14.30;;;;;;;9.24;62.95;98063.36;251759;1134;115447;-64
2020/12/05 04:50:28;;;;;;;19.98;13.40;;;;;;;9.22;63.54;98059.95;251795;1141;115062;-64
2020/12/05 04:55:38;;;;;;;18.70;12.33;;;;;;;9.24;63.29;98057.20;251783;1134;114950;-64
2020/12/05 05:00:41;;;;;;;20.80;12.43;;;;;;;9.36;63.36;98077.54;251762;1135;114618;-64
2020/12/05 05:05:43;;;;;;;18.40;11.80;;;;;;;9.47;63.71;98071.44;251625;1138;114970;-63
2020/12/05 05:10:46;;;;;;;20.60;12.93;;;;;;;9.54;63.42;98067.38;251706;1135;115064;-64
2020/12/05 05:15:48;;;;;;;18.48;11.88;;;;;;;9.58;63.49;98070.65;251641;1135;114580;-64
2020/12/05 05:20:50;;;;;;;21.10;12.07;;;;;;;9.59;63.10;98072.37;251817;1135;115543;-66
2020/12/05 05:25:58;;;;;;;19.00;11.63;;;;;;;9.63;63.33;98069.36;251844;1135;115412;-65
2020/12/05 05:31:05;;;;;;;19.43;11.43;;;;;;;9.68;63.66;98077.85;251818;1135;115396;-65
2020/12/05 05:36:15;;;;;;;19.63;12.20;;;;;;;9.71;63.40;98090.04;251753;1134;115481;-66
2020/12/05 05:41:20;;;;;;;21.60;12.82;;;;;;;9.75;63.27;98090.66;251607;1134;114920;-65
2020/12/05 05:46:28;;;;;;;19.60;12.88;;;;;;;9.78;63.77;98093.94;251760;1135;115295;-63
2020/12/05 05:51:43;;;;;;;21.05;12.07;;;;;;;9.81;63.48;98103.50;251729;1134;114754;-63
2020/12/05 05:56:54;;;;;;;17.30;11.67;;;;;;;9.82;63.57;98113.19;251754;1134;115043;-65
2020/12/05 06:01:57;;;;;;;18.50;11.70;;;;;;;9.83;63.03;98107.75;251749;1134;114922;-64
2020/12/05 06:07:01;;;;;;;17.93;10.67;;;;;;;9.87;63.02;98126.97;251712;1135;114770;-64
2020/12/05 06:12:04;;;;;;;18.15;11.00;;;;;;;9.95;63.25;98136.08;251702;1134;115328;-63
2020/12/05 06:17:08;;;;;;;16.30;11.55;;;;;;;10.00;63.36;98154.34;251880;1134;115053;-63
2020/12/05 06:22:18;;;;;;;17.40;12.17;;;;;;;9.98;63.09;98150.93;251814;1135;115551;-63
2020/12/05 06:27:22;;;;;;;20.57;13.03;;;;;;;9.90;62.61;98148.00;251810;1134;115211;-64
2020/12/05 06:32:41;;;;;;;20.62;12.60;;;;;;;9.77;62.59;98147.20;251545;1134;115226;-64
2020/12/05 06:37:43;;;;;;;21.23;12.93;;;;;;;9.66;62.86;98154.15;251783;1141;115602;-64
2020/12/05 06:42:51;;;;;;;21.67;12.90;;;;;;;9.63;63.18;98158.84;251638;1134;114999;-63
2020/12/05 06:48:08;;;;;;;19.03;12.50;;;;;;;9.52;63.14;98164.92;251196;1135;115044;-65
2020/12/05 06:53:19;;;;;;;21.63;12.77;;;;;;;9.45;63.41;98167.17;251839;1134;115025;-64
2020/12/05 06:58:30;;;;;;;25.30;14.97;;;;;;;9.41;63.35;98186.95;251827;1134;115439;-64
2020/12/05 07:03:33;;;;;;;28.43;13.90;;;;;;;9.34;63.41;98188.34;251769;1133;115143;-65
2020/12/05 07:08:41;;;;;;;26.10;14.73;;;;;;;9.27;62.96;98178.23;251707;1134;115033;-65
2020/12/05 07:13:45;;;;;;;21.80;13.73;;;;;;;9.32;63.78;98187.59;251601;1135;114578;-65
2020/12/05 07:18:49;;;;;;;18.50;11.30;;;;;;;9.38;63.62;98199.59;251587;1136;115771;-65
2020/12/05 07:23:53;;;;;;;17.48;10.88;;;;;;;9.52;63.60;98196.80;251817;1134;114708;-65
2020/12/05 07:28:56;;;;;;;18.27;10.73;;;;;;;9.74;63.92;98190.78;251598;1134;116593;-65
2020/12/05 07:34:01;;;;;;;17.60;10.88;;;;;;;9.97;63.98;98193.59;251711;1140;114880;-64
2020/12/05 07:39:04;;;;;;;18.17;11.77;;;;;;;10.16;64.04;98186.81;251745;1134;115346;-64
2020/12/05 07:44:06;;;;;;;16.93;10.97;;;;;;;10.30;63.69;98192.95;251690;1135;115212;-64
2020/12/05 07:49:11;;;;;;;19.42;11.43;;;;;;;10.37;63.42;98203.00;251756;1135;115357;-65
2020/12/05 07:54:14;;;;;;;19.57;11.43;;;;;;;10.40;63.17;98207.25;251732;1133;115164;-64
2020/12/05 07:59:21;;;;;;;18.50;11.80;;;;;;;10.41;63.60;98207.12;251690;1136;115331;-64
2020/12/05 08:04:42;;;;;;;17.67;12.20;;;;;;;10.45;63.09;98218.38;250026;1134;115934;-63
2020/12/05 08:09:52;;;;;;;18.50;12.20;;;;;;;10.48;63.15;98212.84;249700;1134;115744;-63
2020/12/05 08:14:58;;;;;;;17.27;10.63;;;;;;;10.51;63.42;98222.41;249508;1135;116404;-63
2020/12/05 08:20:05;;;;;;;17.05;10.25;;;;;;;10.56;62.63;98231.75;249882;1134;114992;-64
2020/12/05 08:25:13;;;;;;;18.45;11.45;;;;;;;10.61;62.81;98237.56;249712;1135;115462;-63
2020/12/05 08:30:22;;;;;;;17.13;11.17;;;;;;;10.61;63.00;98236.72;249668;1134;116289;-63
2020/12/05 08:35:35;;;;;;;;;;;;;;;10.65;62.99;98240.84;249809;1134;115336;-64
2020/12/05 08:40:42;;;;;;;15.43;11.20;;;;;;;10.72;62.82;98242.07;249166;1135;104371;-64
2020/12/05 08:45:48;;;;;;;14.10;10.00;;;;;;;10.80;63.41;98254.79;249572;1134;115381;-64
2020/12/05 08:51:05;;;;;;;15.13;9.80;;;;;;;10.85;62.94;98255.30;249619;1134;115625;-64
2020/12/05 08:56:21;;;;;;;12.37;9.87;;;;;;;10.94;63.37;98261.73;249241;1135;116418;-64
2020/12/05 09:01:43;;;;;;;14.90;9.83;;;;;;;11.00;62.75;98256.78;249593;1134;115335;-64
2020/12/05 09:06:51;;;;;;;15.23;9.67;;;;;;;11.07;63.12;98251.84;249136;1134;115365;-62
2020/12/05 09:12:05;;;;;;;14.03;10.20;;;;;;;11.13;62.75;98251.38;249807;1134;116216;-63
2020/12/05 09:17:27;;;;;;;16.27;10.07;;;;;;;11.21;62.75;98248.99;249974;1134;115618;-64
2020/12/05 09:22:46;;;;;;;13.73;9.87;;;;;;;11.28;63.14;98244.03;250105;1134;115052;-65
2020/12/05 09:28:08;;;;;;;15.10;9.90;;;;;;;11.36;62.42;98238.95;249847;1134;116193;-64
2020/12/05 09:33:26;;;;;;;13.37;9.73;;;;;;;11.41;62.56;98227.92;250088;1134;115026;-64
2020/12/05 09:38:37;;;;;;;14.87;10.25;;;;;;;11.44;62.44;98223.20;250224;1134;115244;-64
2020/12/05 09:43:46;;;;;;;14.90;10.43;;;;;;;11.49;62.01;98214.86;249971;1134;115326;-64
2020/12/05 09:48:58;;;;;;;15.43;10.00;;;;;;;11.55;62.49;98219.72;251714;1135;116945;-65
2020/12/05 09:54:00;;;;;;;13.80;9.73;;;;;;;11.64;62.32;98218.12;251401;1134;114841;-65
2020/12/05 09:59:02;;;;;;;14.05;10.60;;;;;;;11.69;61.79;98227.45;251840;1133;115090;-64
2020/12/05 10:04:08;;;;;;;12.93;9.87;;;;;;;11.74;62.26;98219.92;251854;1135;115665;-63
2020/12/05 10:09:10;;;;;;;14.40;10.80;;;;;;;11.74;61.72;98219.92;251887;1135;115045;-63
2020/12/05 10:14:12;;;;;;;14.77;10.57;;;;;;;11.75;61.64;98220.77;251903;1133;115051;-62
2020/12/05 10:19:15;;;;;;;14.13;10.20;;;;;;;11.80;62.26;98219.44;251732;1135;115394;-62
2020/12/05 10:24:19;;;;;;;12.75;9.70;;;;;;;11.85;61.85;98213.75;251746;1135;115046;-62
2020/12/05 10:29:23;;;;;;;12.90;9.08;;;;;;;11.96;61.76;98219.09;251888;1134;115971;-66
2020/12/05 10:34:25;;;;;;;13.40;9.43;;;;;;;12.05;61.58;98220.99;251745;1134;115156;-63
2020/12/05 10:39:28;;;;;;;12.93;9.03;;;;;;;12.13;61.57;98224.88;251889;1135;116113;-64
2020/12/05 10:44:31;;;;;;;12.50;8.33;;;;;;;12.18;61.05;98231.52;251810;1134;115282;-64
2020/12/05 10:49:34;;;;;;;11.48;8.23;;;;;;;12.25;61.20;98242.53;251840;1134;115436;-65
2020/12/05 10:54:36;;;;;;;12.13;8.53;;;;;;;12.29;60.91;98234.14;251883;1134;115073;-61
2020/12/05 10:59:38;;;;;;;11.90;8.00;;;;;;;12.33;60.71;98244.56;251870;1141;115410;-63
2020/12/05 11:04:41;;;;;;;11.03;8.07;;;;;;;12.37;60.65;98249.55;250993;1136;114563;-63
2020/12/05 11:09:43;;;;;;;10.15;8.05;;;;;;;12.41;60.72;98240.31;251894;1134;115468;-63
2020/12/05 11:14:46;;;;;;;11.53;8.15;;;;;;;12.42;60.64;98238.48;251681;1135;115199;-64
2020/12/05 11:19:48;;;;;;;11.83;8.27;;;;;;;12.41;60.06;98234.97;251887;1135;115482;-63
2020/12/05 11:24:51;;;;;;;12.60;8.43;;;;;;;12.45;60.11;98233.73;251666;1142;115023;-64
2020/12/05 11:29:53;;;;;;;9.93;7.77;;;;;;;12.52;60.04;98236.75;251820;1134;115334;-63
2020/12/05 11:34:55;;;;;;;12.27;8.40;;;;;;;12.54;60.12;98238.33;251792;1134;115007;-64
2020/12/05 11:39:58;;;;;;;11.03;8.13;;;;;;;12.60;60.54;98246.78;251788;1135;115082;-63
2020/12/05 11:45:02;;;;;;;11.27;8.53;;;;;;;12.61;60.02;98246.67;251683;1135;115145;-64
2020/12/05 11:50:06;;;;;;;14.07;8.40;;;;;;;12.63;60.44;98262.55;249914;1138;114978;-64
2020/12/05 11:55:08;;;;;;;13.00;8.67;;;;;;;12.63;59.90;98266.05;251775;1135;114958;-63
2020/12/05 12:00:11;;;;;;;13.50;8.87;;;;;;;12.65;60.06;98263.28;251766;1135;114832;-62
2020/12/05 12:05:16;;;;;;;14.10;8.80;;;;;;;12.64;59.29;98270.44;251793;1135;114898;-64
2020/12/05 12:10:19;;;;;;;12.33;8.70;;;;;;;12.65;60.15;98266.79;251912;1134;115380;-63
2020/12/05 12:15:21;;;;;;;13.57;8.50;;;;;;;12.65;59.10;98269.46;251716;1134;115048;-64
2020/12/05 12:20:27;;;;;;;14.03;8.67;;;;;;;12.65;59.71;98284.63;251562;1139;115670;-64
2020/12/05 12:25:29;;;;;;;14.13;9.07;;;;;;;12.60;59.67;98300.16;251706;1134;114842;-64
2020/12/05 12:30:32;;;;;;;15.72;9.28;;;;;;;12.55;59.27;98301.40;251757;1134;115317;-63
2020/12/05 12:35:34;;;;;;;16.77;10.30;;;;;;;12.51;59.16;98291.95;251518;1135;115427;-65
2020/12/05 12:40:37;;;;;;;16.40;10.20;;;;;;;12.45;59.10;98295.12;251681;1134;115384;-65
2020/12/05 12:45:41;;;;;;;13.03;9.17;;;;;;;12.38;60.07;98307.27;251491;1135;115141;-64
2020/12/05 12:50:44;;;;;;;12.25;9.33;;;;;;;12.30;59.86;98310.56;251573;1134;115278;-62
2020/12/05 12:55:47;;;;;;;14.23;9.40;;;;;;;12.26;59.98;98310.91;251594;1135;115711;-66
2020/12/05 13:00:49;;;;;;;12.37;9.40;;;;;;;12.21;59.42;98323.79;251445;1133;115422;-66
2020/12/05 13:05:52;;;;;;;16.87;10.57;;;;;;;12.18;60.47;98340.88;251443;1134;116802;-64
2020/12/05 13:10:54;;;;;;;15.30;10.13;;;;;;;12.17;59.35;98344.53;251504;1135;115432;-63
2020/12/05 13:15:56;;;;;;;15.90;10.13;;;;;;;12.17;60.16;98351.69;251564;1135;115217;-63
2020/12/05 13:20:59;;;;;;;19.85;10.85;;;;;;;12.14;59.85;98343.92;251422;1135;116008;-63
2020/12/05 13:26:01;;;;;;;14.97;10.03;;;;;;;12.12;59.51;98335.19;251625;1134;115371;-64
2020/12/05 13:31:04;;;;;;;14.30;9.67;;;;;;;12.15;60.38;98325.13;251558;1135;117008;-62
2020/12/05 13:36:07;;;;;;;16.73;9.97;;;;;;;12.18;59.73;98332.03;251487;1134;115010;-62
2020/12/05 13:41:09;;;;;;;16.23;9.80;;;;;;;12.20;60.12;98338.11;251542;1135;116156;-64
2020/12/05 13:46:14;;;;;;;19.27;10.18;;;;;;;12.22;59.52;98344.16;251570;1133;115520;-63
2020/12/05 13:51:17;;;;;;;19.93;10.50;;;;;;;12.24;59.43;98355.56;251717;1134;115554;-65
2020/12/05 13:56:19;;;;;;;23.60;10.63;;;;;;;12.21;59.47;98364.65;251697;1135;115471;-65
2020/12/05 14:01:22;;;;;;;19.10;10.83;;;;;;;12.20;60.06;98370.13;251657;1134;116658;-66
2020/12/05 14:06:25;;;;;;;22.07;11.03;;;;;;;12.18;60.16;98377.38;251825;1135;115789;-66
2020/12/05 14:11:28;;;;;;;15.17;9.50;;;;;;;12.18;59.87;98374.72;251822;1134;116542;-65
2020/12/05 14:16:31;;;;;;;14.90;8.93;;;;;;;12.18;59.67;98370.23;251576;1135;114534;-67
2020/12/05 14:21:33;;;;;;;14.87;9.13;;;;;;;12.19;59.02;98371.06;251616;1139;115392;-67
2020/12/05 14:26:36;;;;;;;14.50;8.50;;;;;;;12.20;59.67;98375.45;251641;1136;116021;-66
2020/12/05 14:31:38;;;;;;;11.97;8.47;;;;;;;12.18;59.04;98396.90;251703;1135;114783;-65
2020/12/05 14:36:41;;;;;;;12.53;8.85;;;;;;;12.11;59.05;98400.18;251812;1135;115249;-67
2020/12/05 14:41:48;;;;;;;16.57;9.77;;;;;;;12.02;58.84;98405.28;250332;1134;114948;-66
2020/12/05 14:46:53;;;;;;;15.23;9.57;;;;;;;11.94;58.71;98409.50;251749;1135;114661;-65
2020/12/05 14:51:56;;;;;;;20.90;11.22;;;;;;;11.84;58.67;98414.69;251610;1136;115455;-66
2020/12/05 14:56:58;;;;;;;20.10;11.27;;;;;;;11.82;59.60;98413.95;251728;1135;115421;-64
2020/12/05 15:02:00;;;;;;;20.92;11.90;;;;;;;11.79;59.10;98419.51;251920;1143;115149;-64
2020/12/05 15:07:03;;;;;;;20.97;11.80;;;;;;;11.77;58.78;98419.61;251737;1136;115299;-66
2020/12/05 15:26:14;;;;;;;20.68;11.48;;;;;;;11.37;59.69;98440.44;251983;1132;102412;-65
2020/12/05 15:31:16;;;;;;;17.95;11.45;;;;;;;11.28;59.26;98449.14;251900;1135;114933;-64
2020/12/05 15:36:21;;;;;;;20.57;11.40;;;;;;;11.20;59.62;98452.34;251859;1132;115655;-67
2020/12/05 15:41:24;;;;;;;20.82;11.80;;;;;;;11.15;59.36;98459.00;251904;1132;114578;-67
2020/12/05 15:46:27;;;;;;;18.12;11.90;;;;;;;11.09;59.85;98466.45;251968;1132;114714;-63
2020/12/05 15:51:29;;;;;;;19.42;11.93;;;;;;;11.04;59.66;98467.75;252191;1132;115089;-64
2020/12/05 15:56:31;;;;;;;20.50;11.93;;;;;;;11.00;59.97;98459.13;252172;1134;115382;-66
2020/12/05 16:01:35;;;;;;;18.47;11.87;;;;;;;10.96;59.32;98455.00;251491;1131;114913;-67
2020/12/05 16:06:52;;;;;;;20.00;11.20;;;;;;;10.93;59.65;98457.88;249907;1131;114825;-66
2020/12/05 16:11:58;;;;;;;20.50;11.75;;;;;;;10.88;59.45;98465.37;249907;1132;114825;-66
2020/12/05 16:17:06;;;;;;;22.23;11.47;;;;;;;10.86;59.90;98465.46;250099;1132;115985;-66
2020/12/05 16:22:16;;;;;;;19.43;12.73;;;;;;;10.84;59.98;98459.42;249960;1132;114749;-65
2020/12/05 16:27:25;;;;;;;20.13;12.27;;;;;;;10.85;59.73;98454.94;250017;1132;115613;-65
2020/12/05 16:32:33;;;;;;;18.67;12.80;;;;;;;10.81;60.11;98458.80;249813;1132;116458;-66
2020/12/05 16:37:43;;;;;;;19.47;12.40;;;;;;;10.77;60.00;98468.81;249995;1132;115515;-66
2020/12/05 16:42:52;;;;;;;19.63;12.17;;;;;;;10.71;60.40;98457.75;250039;1132;115383;-67
2020/12/05 16:48:02;;;;;;;22.73;13.17;;;;;;;10.61;59.65;98461.06;249791;1132;115217;-63
2020/12/05 16:53:07;;;;;;;27.47;15.23;;;;;;;10.54;60.27;98461.63;249656;1132;115267;-66
2020/12/05 16:58:10;;;;;;;29.57;16.00;;;;;;;10.48;59.95;98456.73;250398;1132;114869;-63
2020/12/05 17:03:13;;;;;;;31.60;17.25;;;;;;;10.42;59.99;98460.66;252022;1132;114947;-63
2020/12/05 17:08:16;;;;;;;30.48;16.87;;;;;;;10.37;60.61;98462.81;251931;1135;115017;-64
2020/12/05 17:13:19;;;;;;;30.60;16.20;;;;;;;10.38;60.81;98461.84;252105;1133;114620;-64
2020/12/05 17:18:21;;;;;;;33.50;17.63;;;;;;;10.36;60.55;98463.75;252191;1133;115455;-67
2020/12/05 17:23:24;;;;;;;31.05;17.23;;;;;;;10.33;60.48;98456.86;252042;1132;116188;-64
2020/12/05 17:28:27;;;;;;;30.57;17.15;;;;;;;10.25;60.35;98466.29;252168;1134;115090;-63
2020/12/05 17:33:30;;;;;;;33.38;17.35;;;;;;;10.18;60.18;98461.39;252119;1133;115085;-63
2020/12/05 17:38:33;;;;;;;33.55;17.98;;;;;;;10.16;60.82;98452.69;252251;1134;116565;-64
2020/12/05 17:43:35;;;;;;;37.37;19.13;;;;;;;10.11;60.38;98444.17;252180;1134;114713;-67
2020/12/05 17:48:39;;;;;;;36.63;18.27;;;;;;;10.09;61.00;98445.26;252186;1134;115377;-64
2020/12/05 17:53:41;;;;;;;32.70;18.35;;;;;;;10.12;60.83;98459.19;252055;1132;114802;-62
2020/12/05 17:58:44;;;;;;;34.50;19.27;;;;;;;10.15;60.76;98463.41;251993;1132;114822;-62
2020/12/05 18:03:47;;;;;;;33.70;19.12;;;;;;;10.14;60.70;98459.91;251838;1135;114934;-65
2020/12/05 18:08:49;;;;;;;34.03;19.33;;;;;;;10.11;61.05;98460.13;251862;1135;114989;-65
2020/12/05 18:13:52;;;;;;;33.93;19.50;;;;;;;10.06;60.50;98478.22;252025;1132;114483;-64
2020/12/05 18:18:55;;;;;;;34.50;19.25;;;;;;;9.98;60.71;98472.55;251943;1132;114861;-64
2020/12/05 18:23:57;;;;;;;33.90;19.10;;;;;;;9.86;60.66;98474.27;251766;1132;114946;-63
2020/12/05 18:29:00;;;;;;;30.95;18.73;;;;;;;9.74;60.60;98469.77;251936;1139;114999;-64
2020/12/05 18:34:04;;;;;;;33.73;19.10;;;;;;;9.64;60.29;98474.84;252049;1132;114972;-63
2020/12/05 18:39:08;;;;;;;39.55;19.98;;;;;;;9.53;60.75;98492.47;251837;1132;115134;-62
2020/12/05 18:44:11;;;;;;;31.57;18.55;;;;;;;9.46;60.47;98497.34;252034;1132;115144;-66
2020/12/05 18:49:15;;;;;;;35.87;20.07;;;;;;;9.39;61.10;98483.61;251795;1132;115083;-63
2020/12/05 18:54:18;;;;;;;34.27;18.95;;;;;;;9.35;61.20;98495.39;251882;1132;115370;-66
2020/12/05 18:59:21;;;;;;;33.93;19.50;;;;;;;9.34;61.18;98500.79;252003;1131;115092;-63
2020/12/05 19:04:23;;;;;;;31.85;18.80;;;;;;;9.30;61.60;98507.26;251855;1132;114395;-63
2020/12/05 19:09:26;;;;;;;29.25;16.95;;;;;;;9.31;61.79;98509.83;251851;1137;114364;-64
2020/12/05 19:14:29;;;;;;;31.83;18.00;;;;;;;9.28;61.48;98509.19;251926;1132;115163;-64
2020/12/05 19:19:32;;;;;;;31.20;17.65;;;;;;;9.18;61.22;98509.77;251867;1133;115141;-65
2020/12/05 19:24:34;;;;;;;33.90;18.93;;;;;;;9.13;61.26;98513.66;251721;1131;114971;-65
2020/12/05 19:29:36;;;;;;;35.92;20.27;;;;;;;9.16;61.46;98511.66;251873;1132;115115;-63
2020/12/05 19:34:39;;;;;;;37.83;19.95;;;;;;;9.19;61.70;98507.96;251912;1134;114741;-65
2020/12/05 19:39:42;;;;;;;39.20;20.37;;;;;;;9.23;61.50;98520.08;252129;1132;114456;-63
2020/12/05 19:44:44;;;;;;;35.55;20.15;;;;;;;9.23;62.04;98526.23;252136;1134;115038;-63
2020/12/05 19:49:47;;;;;;;35.83;20.80;;;;;;;9.22;62.06;98524.55;252077;1132;114529;-62
2020/12/05 19:54:50;;;;;;;38.40;20.57;;;;;;;9.17;61.68;98523.13;252051;1133;115493;-65
2020/12/05 19:59:52;;;;;;;45.80;26.80;;;;;;;9.11;61.85;98521.74;252152;1132;115105;-65
2020/12/05 20:04:55;;;;;;;42.88;22.42;;;;;;;9.04;61.98;98516.93;252117;1134;114718;-65
2020/12/05 20:10:06;;;;;;;41.13;22.22;;;;;;;8.97;61.82;98527.09;252051;1133;115185;-65
2020/12/05 20:15:09;;;;;;;46.23;24.10;;;;;;;8.89;61.88;98527.55;252071;1133;114695;-64
2020/12/05 20:20:12;;;;;;;40.92;22.25;;;;;;;8.80;61.97;98527.27;252138;1134;114755;-62
2020/12/05 20:25:17;;;;;;;41.70;22.15;;;;;;;8.69;61.86;98531.45;251960;1132;114858;-62
2020/12/05 20:30:19;;;;;;;43.75;25.48;;;;;;;8.62;62.03;98518.67;252100;1135;114806;-61
2020/12/05 20:35:22;;;;;;;53.10;28.00;;;;;;;8.61;62.45;98507.22;252137;1137;114662;-66
2020/12/05 20:40:25;;;;;;;48.00;25.43;;;;;;;8.65;62.47;98513.19;252005;1135;114575;-64
2020/12/05 20:45:27;;;;;;;44.57;24.40;;;;;;;8.69;62.62;98515.53;252057;1132;115452;-66
2020/12/05 20:50:30;;;;;;;49.90;27.67;;;;;;;8.76;62.71;98511.58;251900;1134;114993;-68
2020/12/05 20:55:32;;;;;;;48.67;27.10;;;;;;;8.82;63.03;98520.08;252085;1134;114802;-64
2020/12/05 21:00:37;;;;;;;53.80;27.87;;;;;;;8.80;62.54;98512.23;252012;1132;114688;-66
2020/12/05 21:05:39;;;;;;;51.37;28.77;;;;;;;8.80;62.67;98503.40;252055;1132;115103;-65
2020/12/05 21:10:41;;;;;;;53.35;27.35;;;;;;;8.81;63.18;98497.16;252084;1132;114995;-64
2020/12/05 21:15:44;;;;;;;46.77;26.15;;;;;;;8.81;62.91;98497.16;251963;1132;115243;-65
2020/12/05 21:20:46;;;;;;;50.98;27.10;;;;;;;8.78;62.71;98502.66;251994;1133;114872;-65
2020/12/05 21:25:49;;;;;;;52.27;27.20;;;;;;;8.70;62.81;98511.11;252082;1133;114691;-66
2020/12/05 21:30:56;;;;;;;47.60;26.07;;;;;;;8.65;63.00;98503.42;251992;1132;114831;-64
2020/12/05 21:35:59;;;;;;;51.77;27.35;;;;;;;8.66;63.18;98505.15;252046;1132;114738;-68
2020/12/05 21:41:01;;;;;;;52.83;27.40;;;;;;;8.64;63.10;98514.14;252092;1135;115206;-66
2020/12/05 21:46:04;;;;;;;46.20;26.30;;;;;;;8.63;63.37;98510.64;251935;1135;114405;-65
2020/12/05 21:51:09;;;;;;;51.50;26.30;;;;;;;8.59;63.36;98508.25;250418;1132;114849;-68
2020/12/05 21:56:13;;;;;;;50.03;26.27;;;;;;;8.59;63.11;98508.25;252060;1132;115500;-64
2020/12/05 22:01:15;;;;;;;47.40;26.02;;;;;;;8.62;63.63;98498.30;252046;1132;114822;-65
2020/12/05 22:06:18;;;;;;;42.75;24.00;;;;;;;8.69;63.34;98502.27;251998;1135;114757;-64
2020/12/05 22:11:22;;;;;;;42.30;22.55;;;;;;;8.76;63.14;98502.73;252141;1132;114356;-63
2020/12/05 22:16:26;;;;;;;37.65;21.45;;;;;;;8.80;63.58;98500.74;252094;1135;114370;-63
2020/12/05 22:21:28;;;;;;;38.08;21.05;;;;;;;8.82;63.34;98505.02;252120;1133;114362;-63
2020/12/05 22:26:34;;;;;;;38.63;19.80;;;;;;;8.84;63.55;98507.59;251938;1132;115033;-65
2020/12/05 22:31:36;;;;;;;36.10;20.30;;;;;;;8.85;63.85;98504.82;250633;1132;114733;-63
2020/12/05 22:36:43;;;;;;;36.03;20.73;;;;;;;8.89;64.16;98500.17;251073;1132;115110;-63
2020/12/05 22:41:50;;;;;;;32.40;19.77;;;;;;;8.91;63.82;98495.62;251974;1132;115315;-63
2020/12/05 22:46:52;;;;;;;37.95;21.68;;;;;;;8.93;64.01;98496.36;252113;1131;114859;-64
2020/12/05 22:51:55;;;;;;;38.07;20.17;;;;;;;8.95;64.06;98494.48;250582;1132;115686;-66
2020/12/05 22:56:57;;;;;;;32.65;19.05;;;;;;;8.99;63.84;98496.82;252067;1132;114832;-63
2020/12/05 23:02:00;;;;;;;34.20;18.80;;;;;;;9.07;63.98;98508.74;252010;1132;114901;-63
2020/12/05 23:07:04;;;;;;;33.80;19.35;;;;;;;9.11;64.04;98511.12;252259;1131;114938;-64
2020/12/05 23:12:08;;;;;;;39.97;23.40;;;;;;;9.12;63.66;98510.16;250649;1131;114581;-64